Kings, Illinois
Current Conditions -  °F | °C
As of 11:15 AM on Saturday 20 Dec 2014 (Local Time) from KRPJ Reporting Station
Haze Haze  
Wind Chill: 24°   Ceiling: 3600
Heat Index: 29°   Visibility: 5mi
Dew Point: 26°   Wind: 5mph
Humidity: 88%   Direction: 150°SSE
Pressure: 30.27"   Gusts: NA
Location:  41.9424°N, 89.0653°W
Report Text: KRPJ 201715Z AUTO 15004KT 5SM BR OVC036 M01/M03 A3027 RMK AO2 T10151032
Loading
Personal Weather Stations






























Interactive Weather Map New forecast layout! Learn more

10-Day Weather Forecast

Advertisements
Track Severe Weather on mobile